sensor_id;sensor_type;location;lat;lon;timestamp;P1;durP1;ratioP1;P2;durP2;ratioP2
8604;SDS011;4340;52.516;13.468;2022-09-02T00:00:40;5.50;;;1.60;;
8604;SDS011;4340;52.516;13.468;2022-09-02T00:03:06;2.27;;;1.63;;
8604;SDS011;4340;52.516;13.468;2022-09-02T00:05:33;1.30;;;1.30;;
8604;SDS011;4340;52.516;13.468;2022-09-02T00:08:00;1.70;;;1.60;;
8604;SDS011;4340;52.516;13.468;2022-09-02T00:10:26;3.17;;;1.80;;
8604;SDS011;4340;52.516;13.468;2022-09-02T00:12:54;1.73;;;1.63;;
8604;SDS011;4340;52.516;13.468;2022-09-02T00:15:21;1.30;;;1.30;;
8604;SDS011;4340;52.516;13.468;2022-09-02T00:17:48;3.57;;;2.13;;
8604;SDS011;4340;52.516;13.468;2022-09-02T00:20:14;4.63;;;1.67;;
8604;SDS011;4340;52.516;13.468;2022-09-02T00:22:42;1.67;;;1.57;;
8604;SDS011;4340;52.516;13.468;2022-09-02T00:25:09;3.70;;;1.70;;
8604;SDS011;4340;52.516;13.468;2022-09-02T00:27:37;1.73;;;1.63;;
8604;SDS011;4340;52.516;13.468;2022-09-02T00:30:05;3.93;;;1.67;;
8604;SDS011;4340;52.516;13.468;2022-09-02T00:32:32;2.40;;;1.70;;
8604;SDS011;4340;52.516;13.468;2022-09-02T00:34:59;1.90;;;1.80;;
8604;SDS011;4340;52.516;13.468;2022-09-02T00:37:26;1.70;;;1.60;;
8604;SDS011;4340;52.516;13.468;2022-09-02T00:39:53;1.90;;;1.80;;
8604;SDS011;4340;52.516;13.468;2022-09-02T00:42:20;1.40;;;1.40;;
8604;SDS011;4340;52.516;13.468;2022-09-02T00:44:47;2.17;;;1.70;;
8604;SDS011;4340;52.516;13.468;2022-09-02T00:47:16;2.60;;;1.97;;
8604;SDS011;4340;52.516;13.468;2022-09-02T00:49:44;2.07;;;1.60;;
8604;SDS011;4340;52.516;13.468;2022-09-02T00:52:15;1.80;;;1.70;;
8604;SDS011;4340;52.516;13.468;2022-09-02T00:54:46;1.60;;;1.60;;
8604;SDS011;4340;52.516;13.468;2022-09-02T00:57:15;1.83;;;1.63;;
8604;SDS011;4340;52.516;13.468;2022-09-02T00:59:47;2.17;;;2.00;;
8604;SDS011;4340;52.516;13.468;2022-09-02T01:02:20;2.07;;;1.97;;
8604;SDS011;4340;52.516;13.468;2022-09-02T01:04:49;1.80;;;1.70;;
8604;SDS011;4340;52.516;13.468;2022-09-02T01:07:20;1.87;;;1.77;;
8604;SDS011;4340;52.516;13.468;2022-09-02T01:09:47;1.80;;;1.70;;
8604;SDS011;4340;52.516;13.468;2022-09-02T01:12:14;1.67;;;1.57;;
8604;SDS011;4340;52.516;13.468;2022-09-02T01:14:41;1.70;;;1.70;;
8604;SDS011;4340;52.516;13.468;2022-09-02T01:17:07;2.50;;;1.50;;
8604;SDS011;4340;52.516;13.468;2022-09-02T01:19:36;2.23;;;1.80;;
8604;SDS011;4340;52.516;13.468;2022-09-02T01:22:15;6.20;;;1.80;;
8604;SDS011;4340;52.516;13.468;2022-09-02T01:24:42;1.70;;;1.60;;
8604;SDS011;4340;52.516;13.468;2022-09-02T01:27:08;1.80;;;1.70;;
8604;SDS011;4340;52.516;13.468;2022-09-02T01:29:40;1.73;;;1.63;;
8604;SDS011;4340;52.516;13.468;2022-09-02T01:32:06;1.73;;;1.63;;
8604;SDS011;4340;52.516;13.468;2022-09-02T01:34:33;1.83;;;1.73;;
8604;SDS011;4340;52.516;13.468;2022-09-02T01:36:59;2.60;;;1.37;;
8604;SDS011;4340;52.516;13.468;2022-09-02T01:39:28;1.87;;;1.77;;
8604;SDS011;4340;52.516;13.468;2022-09-02T01:41:54;2.10;;;1.40;;
8604;SDS011;4340;52.516;13.468;2022-09-02T01:44:21;2.07;;;1.97;;
8604;SDS011;4340;52.516;13.468;2022-09-02T01:46:51;1.70;;;1.60;;
8604;SDS011;4340;52.516;13.468;2022-09-02T01:49:17;1.97;;;1.87;;
8604;SDS011;4340;52.516;13.468;2022-09-02T01:51:44;1.63;;;1.53;;
8604;SDS011;4340;52.516;13.468;2022-09-02T01:54:10;2.83;;;2.00;;
8604;SDS011;4340;52.516;13.468;2022-09-02T01:56:38;2.50;;;1.57;;
8604;SDS011;4340;52.516;13.468;2022-09-02T01:59:05;1.60;;;1.60;;
8604;SDS011;4340;52.516;13.468;2022-09-02T02:01:32;2.73;;;2.00;;
8604;SDS011;4340;52.516;13.468;2022-09-02T02:03:59;2.00;;;1.63;;
8604;SDS011;4340;52.516;13.468;2022-09-02T02:06:26;1.80;;;1.70;;
8604;SDS011;4340;52.516;13.468;2022-09-02T02:08:53;2.00;;;1.70;;
8604;SDS011;4340;52.516;13.468;2022-09-02T02:11:20;2.00;;;1.90;;
8604;SDS011;4340;52.516;13.468;2022-09-02T02:13:49;1.97;;;1.87;;
8604;SDS011;4340;52.516;13.468;2022-09-02T02:16:16;3.90;;;2.10;;
8604;SDS011;4340;52.516;13.468;2022-09-02T02:18:42;3.00;;;1.80;;
8604;SDS011;4340;52.516;13.468;2022-09-02T02:21:09;3.83;;;1.73;;
8604;SDS011;4340;52.516;13.468;2022-09-02T02:23:36;6.50;;;1.70;;
8604;SDS011;4340;52.516;13.468;2022-09-02T02:26:02;2.37;;;1.90;;
8604;SDS011;4340;52.516;13.468;2022-09-02T02:28:29;2.13;;;2.03;;
8604;SDS011;4340;52.516;13.468;2022-09-02T02:30:57;2.13;;;1.90;;
8604;SDS011;4340;52.516;13.468;2022-09-02T02:33:24;1.83;;;1.73;;
8604;SDS011;4340;52.516;13.468;2022-09-02T02:35:52;2.23;;;1.90;;
8604;SDS011;4340;52.516;13.468;2022-09-02T02:38:20;1.93;;;1.83;;
8604;SDS011;4340;52.516;13.468;2022-09-02T02:40:46;2.00;;;1.90;;
8604;SDS011;4340;52.516;13.468;2022-09-02T02:43:13;1.77;;;1.70;;
8604;SDS011;4340;52.516;13.468;2022-09-02T02:45:40;2.07;;;1.87;;
8604;SDS011;4340;52.516;13.468;2022-09-02T02:48:08;1.93;;;1.83;;
8604;SDS011;4340;52.516;13.468;2022-09-02T02:50:37;2.10;;;2.00;;
8604;SDS011;4340;52.516;13.468;2022-09-02T02:53:04;2.00;;;1.90;;
8604;SDS011;4340;52.516;13.468;2022-09-02T02:55:30;2.00;;;1.70;;
8604;SDS011;4340;52.516;13.468;2022-09-02T02:57:57;2.50;;;1.90;;
8604;SDS011;4340;52.516;13.468;2022-09-02T03:00:24;2.33;;;2.13;;
8604;SDS011;4340;52.516;13.468;2022-09-02T03:02:54;2.03;;;1.83;;
8604;SDS011;4340;52.516;13.468;2022-09-02T03:05:22;3.17;;;2.20;;
8604;SDS011;4340;52.516;13.468;2022-09-02T03:07:49;1.90;;;1.80;;
8604;SDS011;4340;52.516;13.468;2022-09-02T03:10:16;2.20;;;2.00;;
8604;SDS011;4340;52.516;13.468;2022-09-02T03:12:43;2.10;;;2.00;;
8604;SDS011;4340;52.516;13.468;2022-09-02T03:15:12;2.63;;;2.43;;
8604;SDS011;4340;52.516;13.468;2022-09-02T03:17:41;2.13;;;2.03;;
8604;SDS011;4340;52.516;13.468;2022-09-02T03:20:07;2.87;;;2.20;;
8604;SDS011;4340;52.516;13.468;2022-09-02T03:22:36;2.20;;;2.03;;
8604;SDS011;4340;52.516;13.468;2022-09-02T03:25:04;3.10;;;2.33;;
8604;SDS011;4340;52.516;13.468;2022-09-02T03:27:32;2.63;;;2.43;;
8604;SDS011;4340;52.516;13.468;2022-09-02T03:29:59;3.90;;;2.47;;
8604;SDS011;4340;52.516;13.468;2022-09-02T03:32:26;2.30;;;2.20;;
8604;SDS011;4340;52.516;13.468;2022-09-02T03:34:53;2.60;;;2.40;;
8604;SDS011;4340;52.516;13.468;2022-09-02T03:37:19;3.10;;;2.57;;
8604;SDS011;4340;52.516;13.468;2022-09-02T03:39:47;2.63;;;2.50;;
8604;SDS011;4340;52.516;13.468;2022-09-02T03:42:13;3.87;;;2.70;;
8604;SDS011;4340;52.516;13.468;2022-09-02T03:44:40;2.40;;;2.13;;
8604;SDS011;4340;52.516;13.468;2022-09-02T03:47:06;4.60;;;2.37;;
8604;SDS011;4340;52.516;13.468;2022-09-02T03:49:33;2.27;;;2.17;;
8604;SDS011;4340;52.516;13.468;2022-09-02T03:52:00;2.47;;;2.23;;
8604;SDS011;4340;52.516;13.468;2022-09-02T03:54:27;2.50;;;2.30;;
8604;SDS011;4340;52.516;13.468;2022-09-02T03:56:55;2.50;;;2.27;;
8604;SDS011;4340;52.516;13.468;2022-09-02T03:59:22;2.63;;;2.40;;
8604;SDS011;4340;52.516;13.468;2022-09-02T04:01:49;4.03;;;2.77;;
8604;SDS011;4340;52.516;13.468;2022-09-02T04:04:15;5.63;;;2.50;;
8604;SDS011;4340;52.516;13.468;2022-09-02T04:06:44;2.47;;;2.37;;
8604;SDS011;4340;52.516;13.468;2022-09-02T04:09:10;2.97;;;2.77;;
8604;SDS011;4340;52.516;13.468;2022-09-02T04:11:37;2.90;;;2.60;;
8604;SDS011;4340;52.516;13.468;2022-09-02T04:14:08;2.93;;;2.67;;
8604;SDS011;4340;52.516;13.468;2022-09-02T04:16:35;2.77;;;2.60;;
8604;SDS011;4340;52.516;13.468;2022-09-02T04:19:02;3.93;;;2.20;;
8604;SDS011;4340;52.516;13.468;2022-09-02T04:21:31;3.00;;;2.80;;
8604;SDS011;4340;52.516;13.468;2022-09-02T04:23:59;3.13;;;2.93;;
8604;SDS011;4340;52.516;13.468;2022-09-02T04:26:25;3.97;;;2.50;;
8604;SDS011;4340;52.516;13.468;2022-09-02T04:28:52;3.00;;;2.80;;
8604;SDS011;4340;52.516;13.468;2022-09-02T04:31:21;2.90;;;2.77;;
8604;SDS011;4340;52.516;13.468;2022-09-02T04:33:49;2.97;;;2.73;;
8604;SDS011;4340;52.516;13.468;2022-09-02T04:36:18;2.73;;;2.60;;
8604;SDS011;4340;52.516;13.468;2022-09-02T04:38:46;3.13;;;2.87;;
8604;SDS011;4340;52.516;13.468;2022-09-02T04:41:13;9.17;;;2.87;;
8604;SDS011;4340;52.516;13.468;2022-09-02T04:43:41;2.90;;;2.60;;
8604;SDS011;4340;52.516;13.468;2022-09-02T04:46:08;6.00;;;3.07;;
8604;SDS011;4340;52.516;13.468;2022-09-02T04:48:37;4.73;;;2.50;;
8604;SDS011;4340;52.516;13.468;2022-09-02T04:51:04;4.20;;;2.80;;
8604;SDS011;4340;52.516;13.468;2022-09-02T04:53:33;3.70;;;2.90;;
8604;SDS011;4340;52.516;13.468;2022-09-02T04:56:02;4.33;;;2.90;;
8604;SDS011;4340;52.516;13.468;2022-09-02T04:58:28;6.37;;;3.23;;
8604;SDS011;4340;52.516;13.468;2022-09-02T05:00:55;8.63;;;3.80;;
8604;SDS011;4340;52.516;13.468;2022-09-02T05:03:21;2.83;;;2.63;;
8604;SDS011;4340;52.516;13.468;2022-09-02T05:05:57;7.80;;;3.13;;
8604;SDS011;4340;52.516;13.468;2022-09-02T05:08:25;6.57;;;3.27;;
8604;SDS011;4340;52.516;13.468;2022-09-02T05:10:52;5.07;;;2.97;;
8604;SDS011;4340;52.516;13.468;2022-09-02T05:13:18;3.30;;;3.00;;
8604;SDS011;4340;52.516;13.468;2022-09-02T05:15:45;4.90;;;2.83;;
8604;SDS011;4340;52.516;13.468;2022-09-02T05:18:12;4.27;;;2.83;;
8604;SDS011;4340;52.516;13.468;2022-09-02T05:20:38;4.00;;;2.73;;
8604;SDS011;4340;52.516;13.468;2022-09-02T05:23:08;3.50;;;3.27;;
8604;SDS011;4340;52.516;13.468;2022-09-02T05:25:36;6.60;;;3.40;;
8604;SDS011;4340;52.516;13.468;2022-09-02T05:28:03;6.57;;;3.10;;
8604;SDS011;4340;52.516;13.468;2022-09-02T05:30:30;3.37;;;3.10;;
8604;SDS011;4340;52.516;13.468;2022-09-02T05:32:57;5.20;;;2.80;;
8604;SDS011;4340;52.516;13.468;2022-09-02T05:35:23;8.77;;;2.67;;
8604;SDS011;4340;52.516;13.468;2022-09-02T05:37:50;2.60;;;2.30;;
8604;SDS011;4340;52.516;13.468;2022-09-02T05:40:18;3.17;;;2.73;;
8604;SDS011;4340;52.516;13.468;2022-09-02T05:42:44;4.30;;;2.80;;
8604;SDS011;4340;52.516;13.468;2022-09-02T05:45:11;2.37;;;2.27;;
8604;SDS011;4340;52.516;13.468;2022-09-02T05:47:37;5.43;;;3.00;;
8604;SDS011;4340;52.516;13.468;2022-09-02T05:50:04;2.57;;;2.40;;
8604;SDS011;4340;52.516;13.468;2022-09-02T05:52:31;3.10;;;2.70;;
8604;SDS011;4340;52.516;13.468;2022-09-02T05:54:58;4.23;;;2.60;;
8604;SDS011;4340;52.516;13.468;2022-09-02T05:57:27;3.47;;;2.60;;
8604;SDS011;4340;52.516;13.468;2022-09-02T05:59:54;3.60;;;2.50;;
8604;SDS011;4340;52.516;13.468;2022-09-02T06:02:21;8.50;;;3.10;;
8604;SDS011;4340;52.516;13.468;2022-09-02T06:04:49;2.77;;;2.53;;
8604;SDS011;4340;52.516;13.468;2022-09-02T06:07:18;3.00;;;2.67;;
8604;SDS011;4340;52.516;13.468;2022-09-02T06:09:46;4.90;;;2.80;;
8604;SDS011;4340;52.516;13.468;2022-09-02T06:12:14;3.47;;;2.80;;
8604;SDS011;4340;52.516;13.468;2022-09-02T06:14:45;3.07;;;2.87;;
8604;SDS011;4340;52.516;13.468;2022-09-02T06:17:12;4.80;;;2.50;;
8604;SDS011;4340;52.516;13.468;2022-09-02T06:19:39;8.90;;;2.70;;
8604;SDS011;4340;52.516;13.468;2022-09-02T06:22:06;3.27;;;3.00;;
8604;SDS011;4340;52.516;13.468;2022-09-02T06:24:33;2.83;;;2.63;;
8604;SDS011;4340;52.516;13.468;2022-09-02T06:26:59;6.20;;;3.20;;
8604;SDS011;4340;52.516;13.468;2022-09-02T06:29:26;18.00;;;3.60;;
8604;SDS011;4340;52.516;13.468;2022-09-02T06:31:54;4.60;;;2.93;;
8604;SDS011;4340;52.516;13.468;2022-09-02T06:34:23;3.33;;;3.10;;
8604;SDS011;4340;52.516;13.468;2022-09-02T06:36:51;9.10;;;3.13;;
8604;SDS011;4340;52.516;13.468;2022-09-02T06:39:19;4.60;;;3.17;;
8604;SDS011;4340;52.516;13.468;2022-09-02T06:41:47;3.80;;;2.90;;
8604;SDS011;4340;52.516;13.468;2022-09-02T06:44:14;3.27;;;2.97;;
8604;SDS011;4340;52.516;13.468;2022-09-02T06:46:43;2.87;;;2.70;;
8604;SDS011;4340;52.516;13.468;2022-09-02T06:49:13;5.03;;;2.90;;
8604;SDS011;4340;52.516;13.468;2022-09-02T06:51:41;6.60;;;3.03;;
8604;SDS011;4340;52.516;13.468;2022-09-02T06:54:12;5.07;;;3.10;;
8604;SDS011;4340;52.516;13.468;2022-09-02T06:56:40;3.03;;;2.70;;
8604;SDS011;4340;52.516;13.468;2022-09-02T06:59:07;5.53;;;2.83;;
8604;SDS011;4340;52.516;13.468;2022-09-02T07:01:34;2.67;;;2.50;;
8604;SDS011;4340;52.516;13.468;2022-09-02T07:04:02;3.60;;;2.83;;
8604;SDS011;4340;52.516;13.468;2022-09-02T07:06:48;3.60;;;2.40;;
8604;SDS011;4340;52.516;13.468;2022-09-02T07:09:18;2.83;;;2.53;;
8604;SDS011;4340;52.516;13.468;2022-09-02T07:11:46;5.23;;;2.80;;
8604;SDS011;4340;52.516;13.468;2022-09-02T07:14:14;4.20;;;2.63;;
8604;SDS011;4340;52.516;13.468;2022-09-02T07:16:43;4.03;;;2.73;;
8604;SDS011;4340;52.516;13.468;2022-09-02T07:19:13;7.13;;;2.83;;
8604;SDS011;4340;52.516;13.468;2022-09-02T07:21:40;3.00;;;2.60;;
8604;SDS011;4340;52.516;13.468;2022-09-02T07:24:08;4.43;;;2.60;;
8604;SDS011;4340;52.516;13.468;2022-09-02T07:26:35;3.33;;;2.53;;
8604;SDS011;4340;52.516;13.468;2022-09-02T07:29:03;2.70;;;2.50;;
8604;SDS011;4340;52.516;13.468;2022-09-02T07:31:30;4.60;;;2.47;;
8604;SDS011;4340;52.516;13.468;2022-09-02T07:33:57;7.23;;;2.67;;
8604;SDS011;4340;52.516;13.468;2022-09-02T07:36:24;3.53;;;2.40;;
8604;SDS011;4340;52.516;13.468;2022-09-02T07:38:51;2.83;;;2.50;;
8604;SDS011;4340;52.516;13.468;2022-09-02T07:41:20;4.47;;;2.60;;
8604;SDS011;4340;52.516;13.468;2022-09-02T07:43:48;2.50;;;2.40;;
8604;SDS011;4340;52.516;13.468;2022-09-02T07:46:15;2.87;;;2.67;;
8604;SDS011;4340;52.516;13.468;2022-09-02T07:48:42;7.77;;;2.87;;
8604;SDS011;4340;52.516;13.468;2022-09-02T07:51:10;8.07;;;2.70;;
8604;SDS011;4340;52.516;13.468;2022-09-02T07:53:37;3.07;;;2.60;;
8604;SDS011;4340;52.516;13.468;2022-09-02T07:56:04;2.93;;;2.77;;
8604;SDS011;4340;52.516;13.468;2022-09-02T07:58:32;6.20;;;2.33;;
8604;SDS011;4340;52.516;13.468;2022-09-02T08:00:58;4.20;;;2.40;;
8604;SDS011;4340;52.516;13.468;2022-09-02T08:03:25;7.10;;;2.50;;
8604;SDS011;4340;52.516;13.468;2022-09-02T08:05:53;5.97;;;2.37;;
8604;SDS011;4340;52.516;13.468;2022-09-02T08:08:21;2.60;;;2.40;;
8604;SDS011;4340;52.516;13.468;2022-09-02T08:10:50;2.37;;;2.20;;
8604;SDS011;4340;52.516;13.468;2022-09-02T08:13:18;10.97;;;2.40;;
8604;SDS011;4340;52.516;13.468;2022-09-02T08:15:47;2.20;;;2.10;;
8604;SDS011;4340;52.516;13.468;2022-09-02T08:18:13;2.47;;;2.27;;
8604;SDS011;4340;52.516;13.468;2022-09-02T08:20:40;3.67;;;2.40;;
8604;SDS011;4340;52.516;13.468;2022-09-02T08:23:06;8.40;;;2.53;;
8604;SDS011;4340;52.516;13.468;2022-09-02T08:25:33;5.13;;;3.30;;
8604;SDS011;4340;52.516;13.468;2022-09-02T08:28:01;5.33;;;2.40;;
8604;SDS011;4340;52.516;13.468;2022-09-02T08:30:28;3.63;;;2.40;;
8604;SDS011;4340;52.516;13.468;2022-09-02T08:32:56;2.30;;;2.10;;
8604;SDS011;4340;52.516;13.468;2022-09-02T08:35:23;6.43;;;2.20;;
8604;SDS011;4340;52.516;13.468;2022-09-02T08:37:50;1.83;;;1.73;;
8604;SDS011;4340;52.516;13.468;2022-09-02T08:40:18;3.87;;;2.50;;
8604;SDS011;4340;52.516;13.468;2022-09-02T08:42:47;2.03;;;1.93;;
8604;SDS011;4340;52.516;13.468;2022-09-02T08:45:17;2.37;;;2.20;;
8604;SDS011;4340;52.516;13.468;2022-09-02T08:47:49;1.80;;;1.77;;
8604;SDS011;4340;52.516;13.468;2022-09-02T08:50:24;6.23;;;2.40;;
8604;SDS011;4340;52.516;13.468;2022-09-02T08:52:55;3.57;;;2.50;;
8604;SDS011;4340;52.516;13.468;2022-09-02T08:55:26;3.00;;;1.80;;
8604;SDS011;4340;52.516;13.468;2022-09-02T08:57:58;2.00;;;1.57;;
8604;SDS011;4340;52.516;13.468;2022-09-02T09:00:26;5.93;;;1.50;;
8604;SDS011;4340;52.516;13.468;2022-09-02T09:02:57;1.67;;;1.57;;
8604;SDS011;4340;52.516;13.468;2022-09-02T09:05:32;1.93;;;1.83;;
8604;SDS011;4340;52.516;13.468;2022-09-02T09:08:09;1.57;;;1.57;;
8604;SDS011;4340;52.516;13.468;2022-09-02T09:10:45;1.67;;;1.57;;
8604;SDS011;4340;52.516;13.468;2022-09-02T09:13:25;2.50;;;1.60;;
8604;SDS011;4340;52.516;13.468;2022-09-02T09:16:11;1.67;;;1.57;;
8604;SDS011;4340;52.516;13.468;2022-09-02T09:18:47;2.93;;;1.33;;
8604;SDS011;4340;52.516;13.468;2022-09-02T09:21:20;1.40;;;1.30;;
8604;SDS011;4340;52.516;13.468;2022-09-02T09:23:48;1.93;;;1.30;;
8604;SDS011;4340;52.516;13.468;2022-09-02T09:26:20;1.83;;;1.30;;
8604;SDS011;4340;52.516;13.468;2022-09-02T09:28:51;1.43;;;1.10;;
8604;SDS011;4340;52.516;13.468;2022-09-02T09:31:20;4.67;;;1.57;;
8604;SDS011;4340;52.516;13.468;2022-09-02T09:33:55;1.40;;;1.30;;
8604;SDS011;4340;52.516;13.468;2022-09-02T09:36:43;7.17;;;1.40;;
8604;SDS011;4340;52.516;13.468;2022-09-02T09:39:16;1.13;;;1.13;;
8604;SDS011;4340;52.516;13.468;2022-09-02T09:41:43;1.13;;;1.10;;
8604;SDS011;4340;52.516;13.468;2022-09-02T09:44:13;5.07;;;1.40;;
8604;SDS011;4340;52.516;13.468;2022-09-02T09:47:05;1.50;;;1.40;;
8604;SDS011;4340;52.516;13.468;2022-09-02T09:49:35;14.17;;;1.70;;
8604;SDS011;4340;52.516;13.468;2022-09-02T09:52:04;2.37;;;1.20;;
8604;SDS011;4340;52.516;13.468;2022-09-02T09:54:32;10.43;;;1.43;;
8604;SDS011;4340;52.516;13.468;2022-09-02T09:57:11;3.60;;;1.53;;
8604;SDS011;4340;52.516;13.468;2022-09-02T09:59:42;1.80;;;1.20;;
8604;SDS011;4340;52.516;13.468;2022-09-02T10:02:17;1.23;;;1.23;;
8604;SDS011;4340;52.516;13.468;2022-09-02T10:04:45;6.07;;;1.60;;
8604;SDS011;4340;52.516;13.468;2022-09-02T10:07:14;1.80;;;1.70;;
8604;SDS011;4340;52.516;13.468;2022-09-02T10:10:07;2.00;;;1.90;;
8604;SDS011;4340;52.516;13.468;2022-09-02T10:12:45;4.60;;;1.60;;
8604;SDS011;4340;52.516;13.468;2022-09-02T10:15:13;2.10;;;1.90;;
8604;SDS011;4340;52.516;13.468;2022-09-02T10:17:43;2.80;;;1.60;;
8604;SDS011;4340;52.516;13.468;2022-09-02T10:20:16;2.20;;;1.60;;
8604;SDS011;4340;52.516;13.468;2022-09-02T10:23:01;2.20;;;2.00;;
8604;SDS011;4340;52.516;13.468;2022-09-02T10:25:38;6.73;;;1.70;;
8604;SDS011;4340;52.516;13.468;2022-09-02T10:28:20;6.27;;;1.97;;
8604;SDS011;4340;52.516;13.468;2022-09-02T10:31:03;2.73;;;1.77;;
8604;SDS011;4340;52.516;13.468;2022-09-02T10:33:39;1.70;;;1.60;;
8604;SDS011;4340;52.516;13.468;2022-09-02T10:36:18;2.80;;;1.67;;
8604;SDS011;4340;52.516;13.468;2022-09-02T10:38:53;2.50;;;1.60;;
8604;SDS011;4340;52.516;13.468;2022-09-02T10:41:32;2.73;;;1.77;;
8604;SDS011;4340;52.516;13.468;2022-09-02T10:44:10;1.90;;;1.80;;
8604;SDS011;4340;52.516;13.468;2022-09-02T10:46:49;2.60;;;1.60;;
8604;SDS011;4340;52.516;13.468;2022-09-02T10:49:27;2.70;;;2.00;;
8604;SDS011;4340;52.516;13.468;2022-09-02T10:52:06;1.90;;;1.80;;
8604;SDS011;4340;52.516;13.468;2022-09-02T10:54:41;2.17;;;2.00;;
8604;SDS011;4340;52.516;13.468;2022-09-02T10:57:18;2.23;;;1.77;;
8604;SDS011;4340;52.516;13.468;2022-09-02T10:59:49;1.90;;;1.80;;
8604;SDS011;4340;52.516;13.468;2022-09-02T11:02:20;2.57;;;2.03;;
8604;SDS011;4340;52.516;13.468;2022-09-02T11:04:52;2.73;;;2.53;;
8604;SDS011;4340;52.516;13.468;2022-09-02T11:07:24;4.03;;;1.53;;
8604;SDS011;4340;52.516;13.468;2022-09-02T11:09:57;2.13;;;1.83;;
8604;SDS011;4340;52.516;13.468;2022-09-02T11:12:30;1.80;;;1.70;;
8604;SDS011;4340;52.516;13.468;2022-09-02T11:15:01;2.50;;;1.80;;
8604;SDS011;4340;52.516;13.468;2022-09-02T11:17:35;7.47;;;1.63;;
8604;SDS011;4340;52.516;13.468;2022-09-02T11:20:07;1.80;;;1.70;;
8604;SDS011;4340;52.516;13.468;2022-09-02T11:22:39;3.57;;;1.67;;
8604;SDS011;4340;52.516;13.468;2022-09-02T11:25:16;3.10;;;1.70;;
8604;SDS011;4340;52.516;13.468;2022-09-02T11:27:48;5.53;;;1.90;;
8604;SDS011;4340;52.516;13.468;2022-09-02T11:30:21;1.60;;;1.50;;
8604;SDS011;4340;52.516;13.468;2022-09-02T11:32:52;1.60;;;1.50;;
8604;SDS011;4340;52.516;13.468;2022-09-02T11:35:24;5.00;;;1.97;;
8604;SDS011;4340;52.516;13.468;2022-09-02T11:37:53;1.60;;;1.50;;
8604;SDS011;4340;52.516;13.468;2022-09-02T11:40:27;3.17;;;1.40;;
8604;SDS011;4340;52.516;13.468;2022-09-02T11:43:02;2.23;;;1.70;;
8604;SDS011;4340;52.516;13.468;2022-09-02T11:45:38;1.10;;;1.00;;
8604;SDS011;4340;52.516;13.468;2022-09-02T11:51:41;1.70;;;1.60;;
8604;SDS011;4340;52.516;13.468;2022-09-02T11:54:26;1.63;;;1.53;;
8604;SDS011;4340;52.516;13.468;2022-09-02T11:57:00;1.40;;;1.40;;
8604;SDS011;4340;52.516;13.468;2022-09-02T12:02:33;1.37;;;1.27;;
8604;SDS011;4340;52.516;13.468;2022-09-02T12:08:09;1.50;;;1.40;;
8604;SDS011;4340;52.516;13.468;2022-09-02T12:10:56;1.73;;;1.30;;
8604;SDS011;4340;52.516;13.468;2022-09-02T12:13:37;1.43;;;1.37;;
8604;SDS011;4340;52.516;13.468;2022-09-02T12:19:16;1.37;;;1.27;;
8604;SDS011;4340;52.516;13.468;2022-09-02T12:24:53;1.50;;;1.40;;
8604;SDS011;4340;52.516;13.468;2022-09-02T12:27:23;1.30;;;1.30;;
8604;SDS011;4340;52.516;13.468;2022-09-02T12:29:53;7.60;;;1.40;;
8604;SDS011;4340;52.516;13.468;2022-09-02T12:35:34;1.70;;;1.60;;
8604;SDS011;4340;52.516;13.468;2022-09-02T12:38:19;5.60;;;1.50;;
8604;SDS011;4340;52.516;13.468;2022-09-02T12:40:53;3.33;;;1.43;;
8604;SDS011;4340;52.516;13.468;2022-09-02T12:43:23;2.73;;;1.63;;
8604;SDS011;4340;52.516;13.468;2022-09-02T12:45:55;1.60;;;1.60;;
8604;SDS011;4340;52.516;13.468;2022-09-02T12:48:29;2.03;;;1.93;;
8604;SDS011;4340;52.516;13.468;2022-09-02T12:51:04;3.13;;;1.73;;
8604;SDS011;4340;52.516;13.468;2022-09-02T12:53:32;4.87;;;1.60;;
8604;SDS011;4340;52.516;13.468;2022-09-02T12:56:02;1.90;;;1.60;;
8604;SDS011;4340;52.516;13.468;2022-09-02T12:58:32;1.60;;;1.53;;
8604;SDS011;4340;52.516;13.468;2022-09-02T13:01:04;2.53;;;2.10;;
8604;SDS011;4340;52.516;13.468;2022-09-02T13:03:41;1.63;;;1.40;;
8604;SDS011;4340;52.516;13.468;2022-09-02T13:06:24;1.57;;;1.47;;
8604;SDS011;4340;52.516;13.468;2022-09-02T13:09:14;1.60;;;1.50;;
8604;SDS011;4340;52.516;13.468;2022-09-02T13:15:05;3.70;;;1.53;;
8604;SDS011;4340;52.516;13.468;2022-09-02T13:20:59;1.97;;;1.70;;
8604;SDS011;4340;52.516;13.468;2022-09-02T13:26:34;1.93;;;1.83;;
8604;SDS011;4340;52.516;13.468;2022-09-02T13:29:21;1.90;;;1.30;;
8604;SDS011;4340;52.516;13.468;2022-09-02T13:32:11;5.57;;;1.83;;
8604;SDS011;4340;52.516;13.468;2022-09-02T13:34:40;1.53;;;1.43;;
8604;SDS011;4340;52.516;13.468;2022-09-02T13:39:55;6.20;;;1.60;;
8604;SDS011;4340;52.516;13.468;2022-09-02T13:42:22;5.60;;;1.70;;
8604;SDS011;4340;52.516;13.468;2022-09-02T13:47:41;2.40;;;1.90;;
8604;SDS011;4340;52.516;13.468;2022-09-02T13:50:09;3.10;;;1.80;;
8604;SDS011;4340;52.516;13.468;2022-09-02T13:52:39;1.93;;;1.70;;
8604;SDS011;4340;52.516;13.468;2022-09-02T13:55:08;2.60;;;1.70;;
8604;SDS011;4340;52.516;13.468;2022-09-02T13:57:37;1.53;;;1.43;;
8604;SDS011;4340;52.516;13.468;2022-09-02T14:00:05;1.47;;;1.40;;
8604;SDS011;4340;52.516;13.468;2022-09-02T14:02:33;5.40;;;1.70;;
8604;SDS011;4340;52.516;13.468;2022-09-02T14:05:01;1.97;;;1.60;;
8604;SDS011;4340;52.516;13.468;2022-09-02T14:07:31;4.00;;;1.80;;
8604;SDS011;4340;52.516;13.468;2022-09-02T14:10:04;1.50;;;1.50;;
8604;SDS011;4340;52.516;13.468;2022-09-02T14:12:35;1.93;;;1.40;;
8604;SDS011;4340;52.516;13.468;2022-09-02T14:15:04;1.50;;;1.40;;
8604;SDS011;4340;52.516;13.468;2022-09-02T14:17:32;3.90;;;1.80;;
8604;SDS011;4340;52.516;13.468;2022-09-02T14:20:07;3.07;;;1.60;;
8604;SDS011;4340;52.516;13.468;2022-09-02T14:22:35;2.60;;;1.30;;
8604;SDS011;4340;52.516;13.468;2022-09-02T14:25:08;1.30;;;1.30;;
8604;SDS011;4340;52.516;13.468;2022-09-02T14:27:38;1.97;;;1.43;;
8604;SDS011;4340;52.516;13.468;2022-09-02T14:30:06;5.73;;;1.67;;
8604;SDS011;4340;52.516;13.468;2022-09-02T14:32:34;1.30;;;1.10;;
8604;SDS011;4340;52.516;13.468;2022-09-02T14:35:09;4.10;;;1.10;;
8604;SDS011;4340;52.516;13.468;2022-09-02T14:37:47;3.57;;;1.20;;
8604;SDS011;4340;52.516;13.468;2022-09-02T14:40:30;1.83;;;1.00;;
8604;SDS011;4340;52.516;13.468;2022-09-02T14:42:58;2.53;;;1.60;;
8604;SDS011;4340;52.516;13.468;2022-09-02T14:45:26;9.50;;;1.40;;
8604;SDS011;4340;52.516;13.468;2022-09-02T14:47:54;1.50;;;1.40;;
8604;SDS011;4340;52.516;13.468;2022-09-02T14:50:24;2.60;;;1.10;;
8604;SDS011;4340;52.516;13.468;2022-09-02T14:52:54;2.23;;;1.90;;
8604;SDS011;4340;52.516;13.468;2022-09-02T14:55:44;1.20;;;1.10;;
8604;SDS011;4340;52.516;13.468;2022-09-02T14:58:13;2.93;;;1.27;;
8604;SDS011;4340;52.516;13.468;2022-09-02T15:00:40;1.27;;;1.17;;
8604;SDS011;4340;52.516;13.468;2022-09-02T15:03:11;1.30;;;1.20;;
8604;SDS011;4340;52.516;13.468;2022-09-02T15:05:39;1.00;;;1.00;;
8604;SDS011;4340;52.516;13.468;2022-09-02T15:08:06;2.53;;;1.20;;
8604;SDS011;4340;52.516;13.468;2022-09-02T15:10:33;1.40;;;1.30;;
8604;SDS011;4340;52.516;13.468;2022-09-02T15:13:03;1.63;;;1.53;;
8604;SDS011;4340;52.516;13.468;2022-09-02T15:15:29;1.97;;;1.30;;
8604;SDS011;4340;52.516;13.468;2022-09-02T15:17:56;1.13;;;1.13;;
8604;SDS011;4340;52.516;13.468;2022-09-02T15:20:22;1.10;;;0.90;;
8604;SDS011;4340;52.516;13.468;2022-09-02T15:22:50;2.43;;;1.10;;
8604;SDS011;4340;52.516;13.468;2022-09-02T15:25:17;1.83;;;1.20;;
8604;SDS011;4340;52.516;13.468;2022-09-02T15:27:44;1.03;;;1.03;;
8604;SDS011;4340;52.516;13.468;2022-09-02T15:30:12;1.40;;;1.33;;
8604;SDS011;4340;52.516;13.468;2022-09-02T15:32:39;2.07;;;1.40;;
8604;SDS011;4340;52.516;13.468;2022-09-02T15:35:06;4.07;;;1.30;;
8604;SDS011;4340;52.516;13.468;2022-09-02T15:37:34;2.40;;;1.17;;
8604;SDS011;4340;52.516;13.468;2022-09-02T15:40:02;1.27;;;1.27;;
8604;SDS011;4340;52.516;13.468;2022-09-02T15:42:32;1.73;;;1.20;;
8604;SDS011;4340;52.516;13.468;2022-09-02T15:44:59;1.10;;;1.10;;
8604;SDS011;4340;52.516;13.468;2022-09-02T15:47:27;0.90;;;0.90;;
8604;SDS011;4340;52.516;13.468;2022-09-02T15:49:54;8.40;;;1.40;;